高雄終端管制區 - 高雄雷達席

METAR RCKH 170400Z 27011KT 6000 FEW012 SCT025 BKN150 33/26 Q0998 NOSIG RMK 28011KT/R09 QFF 997.9HPA A2947=

站台狀態:Online
最後更新:2019-07-17 12:15:01